Aneta, ND

2:01 AM CDT on October 23, 2014 (GMT -0500)
Devils Lake Municipal | Change Station
CLOSE
Current Station
Airport
Location: Devils Lake,
Elevation: 1453 ft
Nearby Weather Stations

Elev 1453 ft 48.11 °N, 98.91 °W | Updated 6 minutes ago

Partly Cloudy
Partly Cloudy
54 °F
Feels Like 54 °F
N
10
Wind Variable Wind from WSW

Today
High -- | Low -- °F
--% Chance of Precip.
Yesterday
High -- | Low -- °F
Precip. -- in
8:02 AM 6:28 PM
Waning Crescent, 0% visible
Pressure 29.82 in
Visibility 10.0 miles
Clouds Overcast 7500 ft
Dew Point 43 °F
Humidity 67%
Rainfall 0.00 in
Snow Depth Not available.
UV 0 out of 12
Pollen 1.90 out of 12
Air Quality Not available.
Flu Activity Local Activity
METAR KDVL 230655Z AUTO 24009KT 10SM OVC075 12/06 A2982 RMK AO1

More Conditions Fewer Conditions

Pressure 29.82 in
Visibility 10.0 miles
Clouds Overcast 7500 ft
Dew Point 43 °F
Humidity 67%
Rainfall 0.00 in
Snow Depth Not available.
UV 0 out of 12
Pollen 1.90 out of 12
Air Quality Not available.
Flu Activity Local Activity
METAR KDVL 230655Z AUTO 24009KT 10SM OVC075 12/06 A2982 RMK AO1

More Conditions Fewer Conditions

10-Day Weather Forecast

Almanac

Astronomy

Oct. 23, 2014 Rise Set
Actual Time 8:02 AM CDT 6:28 PM CDT
Civil Twilight 7:30 AM CDT 7:00 PM CDT
Nautical Twilight 6:54 AM CDT 7:36 PM CDT
Astronomical Twilight 6:19 AM CDT 8:12 PM CDT
Moon 7:42 AM CDT 6:31 PM CDT
Length of Visible Light 11h 29m
Length of Day
10h 26m
Tomorrow will be 3m 14s shorter.
Waning Crescent, 0% of the Moon is Illuminated
Today
Waning Crescent
Oct 23
New
Oct 30
First Quarter
Nov 6
Full
Nov 14
Last Quarter

Today's Extremes

State Highs State Lows

Community

WunderPhotos

Upload Photos

1,764,194 photos uploaded!

Nearby

Snow Depth

Station Depth Elevation
No new snow has been reported.

Earthquake Activity

City Distance Mag. Time & Date
No recent earthquake activity has been reported nearby.
Minimum magnitude displayed is 2.5.

Coastal Water Temperatures

Place Temperature
No Stations Reporting

Nearby Weather Stations